Time;durP1;ratioP1;P1;durP2;ratioP2;P2;SDS_P1;SDS_P2;PMS_P1;PMS_P2;Temp;Humidity;BMP_temperature;BMP_pressure;BME280_temperature;BME280_humidity;BME280_pressure;Samples;Min_cycle;Max_cycle;Signal;HPM_P1;HPM_P2
2023/12/09 05:31:38;;;;;;;0.10;0.10;;;11.60;93.70;;;;;;5294515;23;20509;-76
2023/12/09 05:34:03;;;;;;;0.10;0.10;;;11.70;93.70;;;;;;4893928;29;20468;-76
2023/12/09 05:36:29;;;;;;;0.10;0.10;;;11.70;93.70;;;;;;4913596;29;20111;-76
2023/12/09 05:38:55;;;;;;;0.10;0.10;;;11.70;93.70;;;;;;4886855;29;20060;-77
2023/12/09 05:41:21;;;;;;;0.10;0.10;;;11.80;93.70;;;;;;4901369;29;20063;-76
2023/12/09 05:43:47;;;;;;;0.00;0.00;;;11.80;93.60;;;;;;4882927;29;20024;-76
2023/12/09 05:46:19;;;;;;;0.10;0.10;;;11.80;93.60;;;;;;4882586;29;20033;-76
2023/12/09 05:48:45;;;;;;;0.00;0.00;;;11.80;93.60;;;;;;4900396;29;20040;-76
2023/12/09 05:51:11;;;;;;;0.10;0.10;;;11.90;93.60;;;;;;4898836;29;20025;-76
2023/12/09 05:53:36;;;;;;;0.00;0.00;;;11.90;93.70;;;;;;4893031;29;20493;-76
2023/12/09 05:56:02;;;;;;;0.10;0.10;;;11.90;93.80;;;;;;4895933;29;20036;-75
2023/12/09 05:58:28;;;;;;;0.10;0.10;;;11.90;93.80;;;;;;4881674;29;20037;-77
2023/12/09 06:00:53;;;;;;;0.00;0.00;;;11.90;93.80;;;;;;4901692;29;20544;-76
2023/12/09 06:03:19;;;;;;;0.10;0.10;;;12.00;93.80;;;;;;4903771;29;20111;-75
2023/12/09 06:05:44;;;;;;;0.05;0.05;;;12.00;93.80;;;;;;4888476;29;20048;-76
2023/12/09 06:08:10;;;;;;;0.10;0.10;;;12.00;93.70;;;;;;4896670;29;20033;-75
2023/12/09 06:10:35;;;;;;;0.00;0.00;;;12.00;93.80;;;;;;4901883;29;20028;-76
2023/12/09 06:13:01;;;;;;;0.10;0.10;;;12.10;93.80;;;;;;4900413;29;20036;-76
2023/12/09 06:15:27;;;;;;;0.00;0.00;;;12.10;93.80;;;;;;4903889;29;20511;-76
2023/12/09 06:17:52;;;;;;;0.00;0.00;;;12.20;93.80;;;;;;4886536;29;20038;-75
2023/12/09 06:20:18;;;;;;;0.00;0.00;;;12.20;93.80;;;;;;4892429;29;20020;-75
2023/12/09 06:22:43;;;;;;;0.00;0.00;;;12.20;93.80;;;;;;4886973;29;20044;-76
2023/12/09 06:25:09;;;;;;;0.00;0.00;;;12.20;93.80;;;;;;4899944;29;20021;-76
2023/12/09 06:27:36;;;;;;;0.00;0.00;;;12.30;93.90;;;;;;4888941;29;20122;-76
2023/12/09 06:30:01;;;;;;;0.00;0.00;;;12.20;93.80;;;;;;4903642;29;20024;-76
2023/12/09 06:32:27;;;;;;;0.00;0.00;;;12.20;93.80;;;;;;4894970;29;20240;-76
2023/12/09 06:34:52;;;;;;;0.10;0.10;;;12.30;94.00;;;;;;4903460;29;20481;-76
2023/12/09 06:37:18;;;;;;;0.00;0.00;;;12.30;94.00;;;;;;4880488;29;20044;-76
2023/12/09 06:39:44;;;;;;;0.03;0.03;;;12.30;94.10;;;;;;4889676;29;20033;-76
2023/12/09 06:42:10;;;;;;;0.10;0.10;;;12.40;94.20;;;;;;4887672;29;20033;-76
2023/12/09 06:44:35;;;;;;;0.00;0.00;;;12.40;94.10;;;;;;4886026;29;20043;-76
2023/12/09 06:47:01;;;;;;;0.10;0.10;;;12.40;94.20;;;;;;4903018;29;20029;-76
2023/12/09 06:49:26;;;;;;;0.10;0.10;;;12.50;94.10;;;;;;4885743;29;20040;-76
2023/12/09 06:51:52;;;;;;;0.10;0.10;;;12.50;94.10;;;;;;4897816;29;20069;-76
2023/12/09 06:54:18;;;;;;;0.10;0.10;;;12.60;94.20;;;;;;4901902;29;20036;-76
2023/12/09 06:56:44;;;;;;;0.10;0.10;;;12.60;94.10;;;;;;4886042;29;20036;-76
2023/12/09 06:59:10;;;;;;;0.10;0.10;;;12.60;94.10;;;;;;4870458;29;20076;-76
2023/12/09 07:01:35;;;;;;;0.10;0.10;;;12.70;94.10;;;;;;4902715;29;20031;-76
2023/12/09 07:04:01;;;;;;;0.00;0.00;;;12.70;94.00;;;;;;4896425;29;20036;-76
2023/12/09 07:06:28;;;;;;;0.03;0.03;;;12.70;94.00;;;;;;4885671;29;20027;-76
2023/12/09 07:08:54;;;;;;;0.10;0.10;;;12.80;93.90;;;;;;4894541;29;20025;-78
2023/12/09 07:11:21;;;;;;;0.10;0.10;;;12.80;94.10;;;;;;4884668;29;20073;-76
2023/12/09 07:13:48;;;;;;;0.10;0.10;;;12.90;94.00;;;;;;4902468;29;20397;-75
2023/12/09 07:16:14;;;;;;;0.10;0.10;;;12.90;94.00;;;;;;4889869;29;20036;-78
2023/12/09 07:18:47;;;;;;;0.10;0.10;;;12.90;94.00;;;;;;4892626;29;20980;-77
2023/12/09 07:21:13;;;;;;;0.10;0.10;;;12.90;94.00;;;;;;4898596;29;20083;-88
2023/12/09 07:23:39;;;;;;;0.00;0.00;;;13.00;94.10;;;;;;4885877;29;20096;-88
2023/12/09 07:26:04;;;;;;;0.10;0.10;;;13.10;93.90;;;;;;4882892;29;20580;-86
2023/12/09 07:28:30;;;;;;;0.00;0.00;;;13.20;94.00;;;;;;4897970;29;20397;-82
2023/12/09 07:30:56;;;;;;;0.10;0.10;;;13.20;93.90;;;;;;4888157;29;20185;-81
2023/12/09 07:33:23;;;;;;;0.00;0.00;;;13.20;93.90;;;;;;4899298;29;20408;-79
2023/12/09 07:35:48;;;;;;;0.10;0.10;;;13.20;93.80;;;;;;4901998;29;20028;-79
2023/12/09 07:38:14;;;;;;;0.00;0.00;;;13.30;93.90;;;;;;4897044;29;20500;-82
2023/12/09 07:40:40;;;;;;;0.08;0.08;;;13.30;93.80;;;;;;4905267;29;20105;-79
2023/12/09 07:43:06;;;;;;;0.00;0.00;;;13.40;93.90;;;;;;4901427;29;20404;-79
2023/12/09 07:45:33;;;;;;;0.10;0.10;;;13.40;93.90;;;;;;4896354;29;20053;-81
2023/12/09 07:47:59;;;;;;;0.10;0.10;;;13.50;93.80;;;;;;4883166;29;20025;-82
2023/12/09 07:50:24;;;;;;;0.10;0.10;;;13.50;94.00;;;;;;4883446;29;20037;-82
2023/12/09 07:52:50;;;;;;;0.00;0.00;;;13.60;93.70;;;;;;4900214;29;20373;-81
2023/12/09 07:55:16;;;;;;;0.00;0.00;;;13.60;93.70;;;;;;4884716;29;20043;-82
2023/12/09 07:57:41;;;;;;;0.00;0.00;;;13.70;94.10;;;;;;4883131;29;20173;-82
2023/12/09 08:00:08;;;;;;;0.10;0.10;;;13.70;93.90;;;;;;4892392;29;20036;-82
2023/12/09 08:02:34;;;;;;;0.00;0.00;;;13.70;93.90;;;;;;4900597;29;20037;-79
2023/12/09 08:05:02;;;;;;;0.00;0.00;;;13.80;93.70;;;;;;4900062;29;20029;-87
2023/12/09 08:07:28;;;;;;;0.00;0.00;;;13.80;93.80;;;;;;4887406;29;20031;-82
2023/12/09 08:09:54;;;;;;;0.05;0.05;;;13.80;93.70;;;;;;4900068;29;20027;-82
2023/12/09 08:12:19;;;;;;;0.00;0.00;;;13.80;93.80;;;;;;4899530;29;20084;-82
2023/12/09 08:14:45;;;;;;;0.00;0.00;;;13.90;93.80;;;;;;4896908;29;21026;-82
2023/12/09 08:17:10;;;;;;;0.00;0.00;;;13.90;93.60;;;;;;4897355;29;20057;-82
2023/12/09 08:19:36;;;;;;;0.10;0.10;;;14.00;93.80;;;;;;4897154;29;20052;-83
2023/12/09 08:22:02;;;;;;;0.00;0.00;;;14.00;93.60;;;;;;4912988;29;20032;-82
2023/12/09 08:24:28;;;;;;;0.00;0.00;;;14.00;93.60;;;;;;4917255;29;20036;-83
2023/12/09 08:26:54;;;;;;;0.10;0.10;;;14.00;93.50;;;;;;4894073;29;20049;-82
2023/12/09 08:29:20;;;;;;;0.00;0.00;;;14.10;93.60;;;;;;4895522;29;20021;-82
2023/12/09 08:31:49;;;;;;;0.10;0.10;;;14.10;93.50;;;;;;4898358;29;20443;-83
2023/12/09 08:34:17;;;;;;;0.00;0.00;;;14.20;93.40;;;;;;4897271;29;20032;-83
2023/12/09 08:36:44;;;;;;;0.00;0.00;;;14.20;93.40;;;;;;4897228;29;20067;-82
2023/12/09 08:39:09;;;;;;;0.00;0.00;;;14.20;93.40;;;;;;4886317;29;20394;-85
2023/12/09 08:41:35;;;;;;;0.10;0.10;;;14.20;93.50;;;;;;4905711;29;20103;-80
2023/12/09 08:44:03;;;;;;;0.10;0.10;;;14.20;93.30;;;;;;4892450;29;20025;-81
2023/12/09 08:46:29;;;;;;;0.10;0.10;;;14.30;93.50;;;;;;4900425;29;20488;-81
2023/12/09 08:48:54;;;;;;;0.10;0.10;;;14.30;93.40;;;;;;4898181;29;20829;-89
2023/12/09 08:51:20;;;;;;;0.00;0.00;;;14.30;93.40;;;;;;4886509;29;20111;-81
2023/12/09 08:53:48;;;;;;;0.00;0.00;;;14.30;93.30;;;;;;4897168;29;20040;-83
2023/12/09 08:56:14;;;;;;;0.00;0.00;;;14.30;93.30;;;;;;4896559;29;20041;-79
2023/12/09 08:58:39;;;;;;;0.03;0.03;;;14.40;93.20;;;;;;4881053;29;20040;-83
2023/12/09 09:01:05;;;;;;;0.00;0.00;;;14.40;93.10;;;;;;4894776;29;20036;-79
2023/12/09 09:03:31;;;;;;;0.03;0.03;;;14.40;93.20;;;;;;4906688;29;20561;-79
2023/12/09 09:05:57;;;;;;;0.10;0.10;;;14.40;93.20;;;;;;4892585;29;20029;-80
2023/12/09 09:08:23;;;;;;;0.00;0.00;;;14.40;93.00;;;;;;4905777;29;20055;-77
2023/12/09 09:10:49;;;;;;;0.10;0.10;;;14.50;93.10;;;;;;4897799;29;20044;-79
2023/12/09 09:13:15;;;;;;;0.00;0.00;;;14.50;93.00;;;;;;4889303;29;20040;-78
2023/12/09 09:15:40;;;;;;;0.00;0.00;;;14.50;93.10;;;;;;4896787;29;20477;-78
2023/12/09 09:18:06;;;;;;;0.00;0.00;;;14.50;93.00;;;;;;4893262;29;20040;-79
2023/12/09 09:20:32;;;;;;;0.03;0.03;;;14.50;92.90;;;;;;4892892;29;20033;-79
2023/12/09 09:22:58;;;;;;;0.10;0.10;;;14.60;92.90;;;;;;4888895;29;20035;-80
2023/12/09 09:25:23;;;;;;;0.00;0.00;;;14.60;92.90;;;;;;4892800;29;20040;-79
2023/12/09 09:27:49;;;;;;;0.10;0.10;;;14.60;92.90;;;;;;4907660;29;20400;-79
2023/12/09 09:30:15;;;;;;;0.00;0.00;;;14.70;92.80;;;;;;4898876;29;20041;-80
2023/12/09 09:32:40;;;;;;;0.10;0.10;;;14.70;92.80;;;;;;4890801;29;20475;-79
2023/12/09 09:35:24;;;;;;;0.10;0.10;;;14.70;92.80;;;;;;4890110;29;20508;-80
2023/12/09 09:37:50;;;;;;;0.10;0.10;;;14.70;92.70;;;;;;4879547;29;20491;-79
2023/12/09 09:40:16;;;;;;;0.00;0.00;;;14.70;92.70;;;;;;4899250;29;20052;-80
2023/12/09 09:42:48;;;;;;;0.03;0.03;;;14.70;92.60;;;;;;4881582;29;20029;-80
2023/12/09 09:45:24;;;;;;;0.08;0.08;;;14.70;92.60;;;;;;4885761;29;20033;-80
2023/12/09 09:47:53;;;;;;;0.00;0.00;;;14.70;92.50;;;;;;4895009;29;20061;-80
2023/12/09 09:50:23;;;;;;;0.00;0.00;;;14.80;92.60;;;;;;4883300;29;20140;-80
2023/12/09 09:52:50;;;;;;;0.10;0.10;;;14.80;92.50;;;;;;4872516;29;20462;-81
2023/12/09 09:55:21;;;;;;;0.00;0.00;;;14.80;92.50;;;;;;4888674;29;20040;-81
2023/12/09 09:57:50;;;;;;;0.10;0.10;;;14.80;92.50;;;;;;4898113;29;20067;-81
2023/12/09 10:00:19;;;;;;;0.00;0.00;;;14.80;92.40;;;;;;4869221;29;20073;-80
2023/12/09 10:02:49;;;;;;;0.10;0.10;;;14.80;92.40;;;;;;4889699;29;20033;-80
2023/12/09 10:05:17;;;;;;;0.00;0.00;;;14.90;92.40;;;;;;4888470;29;20033;-80
2023/12/09 10:07:43;;;;;;;0.00;0.00;;;14.90;92.30;;;;;;4885113;29;20037;-81
2023/12/09 10:10:11;;;;;;;0.10;0.10;;;14.90;92.30;;;;;;4895155;29;20033;-80
2023/12/09 10:12:37;;;;;;;0.00;0.00;;;15.00;92.30;;;;;;4897298;29;20037;-81
2023/12/09 10:15:04;;;;;;;0.10;0.10;;;15.10;92.20;;;;;;4896269;29;20033;-82
2023/12/09 10:17:31;;;;;;;0.10;0.10;;;15.10;92.10;;;;;;4897583;29;20062;-81
2023/12/09 10:19:57;;;;;;;0.10;0.10;;;15.10;92.10;;;;;;4900266;29;20025;-80
2023/12/09 10:22:28;;;;;;;0.10;0.10;;;15.10;92.10;;;;;;4907622;29;20744;-81
2023/12/09 10:24:54;;;;;;;0.00;0.00;;;15.20;92.10;;;;;;4875561;29;20035;-83
2023/12/09 10:27:24;;;;;;;0.00;0.00;;;15.20;91.90;;;;;;4898603;29;20651;-83
2023/12/09 10:29:54;;;;;;;0.00;0.00;;;15.20;92.00;;;;;;4876698;29;20531;-82
2023/12/09 10:32:24;;;;;;;0.00;0.00;;;15.20;91.90;;;;;;4894739;29;20534;-80
2023/12/09 10:34:50;;;;;;;0.10;0.10;;;15.20;91.90;;;;;;4901689;29;20056;-81
2023/12/09 10:37:17;;;;;;;0.10;0.10;;;15.20;91.90;;;;;;4875007;29;20049;-82
2023/12/09 10:39:43;;;;;;;0.10;0.10;;;15.30;91.80;;;;;;4876869;29;20121;-82
2023/12/09 10:42:09;;;;;;;0.00;0.00;;;15.30;91.80;;;;;;4898426;29;20032;-82
2023/12/09 10:44:35;;;;;;;0.00;0.00;;;15.30;91.70;;;;;;4892970;29;20025;-80
2023/12/09 10:47:01;;;;;;;0.00;0.00;;;15.40;91.60;;;;;;4882040;29;20450;-81
2023/12/09 10:49:26;;;;;;;0.00;0.00;;;15.30;91.70;;;;;;4894590;29;20061;-80
2023/12/09 10:51:52;;;;;;;0.03;0.03;;;15.30;91.70;;;;;;4909625;29;20040;-80
2023/12/09 10:54:18;;;;;;;0.00;0.00;;;15.30;91.60;;;;;;4900249;29;20060;-81
2023/12/09 10:56:44;;;;;;;0.00;0.00;;;15.30;91.60;;;;;;4880690;29;20489;-81
2023/12/09 10:59:10;;;;;;;0.00;0.00;;;15.30;91.60;;;;;;4888429;29;20043;-82
2023/12/09 11:01:36;;;;;;;0.10;0.10;;;15.30;91.60;;;;;;4880815;29;20056;-86
2023/12/09 11:04:03;;;;;;;0.03;0.03;;;15.30;91.50;;;;;;4886385;29;20602;-91
2023/12/09 11:06:35;;;;;;;0.10;0.10;;;15.30;91.50;;;;;;4876839;29;20029;-88
2023/12/09 11:09:03;;;;;;;0.10;0.10;;;15.30;91.60;;;;;;4885424;29;20112;-82
2023/12/09 11:11:29;;;;;;;0.10;0.10;;;15.40;91.60;;;;;;4897761;29;20741;-84
2023/12/09 11:13:56;;;;;;;0.10;0.10;;;15.40;91.60;;;;;;4891704;29;20346;-86
2023/12/09 11:16:21;;;;;;;0.05;0.05;;;15.40;91.50;;;;;;4884438;29;20040;-87
2023/12/09 11:18:55;;;;;;;0.10;0.10;;;15.40;91.60;;;;;;4895324;29;20517;-87
2023/12/09 11:21:22;;;;;;;0.10;0.10;;;15.40;91.60;;;;;;4892861;29;20104;-81
2023/12/09 11:23:50;;;;;;;0.00;0.00;;;15.50;91.50;;;;;;4888008;29;20025;-85
2023/12/09 11:26:34;;;;;;;0.00;0.00;;;15.50;91.60;;;;;;4900745;29;20028;-79
2023/12/09 11:29:03;;;;;;;0.10;0.10;;;15.50;91.60;;;;;;4895514;29;20418;-77
2023/12/09 11:31:37;;;;;;;0.00;0.00;;;15.60;91.50;;;;;;4895500;29;20064;-78
2023/12/09 11:34:05;;;;;;;0.00;0.00;;;15.70;91.50;;;;;;4894697;29;20056;-88
2023/12/09 11:36:35;;;;;;;0.10;0.10;;;15.70;91.30;;;;;;4883203;29;20040;-77
2023/12/09 11:39:06;;;;;;;0.10;0.10;;;15.80;91.40;;;;;;4892930;29;20032;-76
2023/12/09 11:41:36;;;;;;;0.05;0.05;;;15.80;91.20;;;;;;4908805;29;20120;-77
2023/12/09 11:44:02;;;;;;;0.00;0.00;;;15.70;91.10;;;;;;4893647;29;20020;-77
2023/12/09 11:46:32;;;;;;;0.10;0.10;;;15.70;91.20;;;;;;4895416;29;20033;-78
2023/12/09 11:49:02;;;;;;;0.00;0.00;;;15.70;91.20;;;;;;4896223;29;20047;-77
2023/12/09 11:51:29;;;;;;;0.00;0.00;;;15.80;91.10;;;;;;4879467;29;20994;-77
2023/12/09 11:53:59;;;;;;;0.00;0.00;;;15.80;91.00;;;;;;4895317;29;20116;-76
2023/12/09 11:56:26;;;;;;;0.00;0.00;;;15.70;91.00;;;;;;4895043;29;20460;-80
2023/12/09 11:58:52;;;;;;;0.10;0.10;;;15.80;91.10;;;;;;4895626;29;20626;-79
2023/12/09 12:01:18;;;;;;;0.10;0.10;;;15.80;91.10;;;;;;4878557;29;20037;-77
2023/12/09 12:03:47;;;;;;;0.00;0.00;;;15.70;91.10;;;;;;4896068;29;20029;-78
2023/12/09 12:06:14;;;;;;;0.00;0.00;;;15.70;91.10;;;;;;4901231;29;20497;-79
2023/12/09 12:08:40;;;;;;;0.00;0.00;;;15.80;91.10;;;;;;4893925;29;20029;-79
2023/12/09 12:11:06;;;;;;;0.00;0.00;;;15.90;91.00;;;;;;4884445;29;20041;-79
2023/12/09 12:13:32;;;;;;;0.00;0.00;;;15.90;90.90;;;;;;4879542;29;20036;-78
2023/12/09 12:15:58;;;;;;;0.10;0.10;;;15.80;90.80;;;;;;4895967;29;20032;-79
2023/12/09 12:18:24;;;;;;;0.00;0.00;;;15.80;90.90;;;;;;4890789;29;20065;-78
2023/12/09 12:20:50;;;;;;;0.10;0.10;;;15.80;90.90;;;;;;4884209;29;20029;-81
2023/12/09 12:23:16;;;;;;;0.10;0.10;;;15.80;90.90;;;;;;4892271;29;20041;-78
2023/12/09 12:25:41;;;;;;;0.00;0.00;;;15.80;90.80;;;;;;4884179;29;20029;-77
2023/12/09 12:28:07;;;;;;;0.10;0.10;;;15.80;90.80;;;;;;4895907;29;20057;-79
2023/12/09 12:30:33;;;;;;;0.10;0.10;;;15.90;90.70;;;;;;4880730;29;20087;-79
2023/12/09 12:33:03;;;;;;;0.00;0.00;;;15.90;90.70;;;;;;4884693;29;20037;-78
2023/12/09 12:35:29;;;;;;;0.08;0.08;;;15.90;90.60;;;;;;4894556;29;20060;-89
2023/12/09 12:38:04;;;;;;;0.10;0.10;;;15.80;90.60;;;;;;4892301;29;20475;-83
2023/12/09 12:40:30;;;;;;;0.00;0.00;;;16.00;90.70;;;;;;4883363;29;20029;-82
2023/12/09 12:42:55;;;;;;;0.10;0.10;;;16.10;90.50;;;;;;4877229;29;20029;-81
2023/12/09 12:45:23;;;;;;;0.08;0.08;;;16.00;90.20;;;;;;4880631;29;20040;-77
2023/12/09 12:47:49;;;;;;;0.10;0.10;;;16.10;90.30;;;;;;4866444;29;20037;-79
2023/12/09 12:50:16;;;;;;;0.00;0.00;;;16.00;90.20;;;;;;4885669;29;20070;-79
2023/12/09 12:52:42;;;;;;;0.00;0.00;;;16.00;90.20;;;;;;4900537;29;20119;-79
2023/12/09 12:55:08;;;;;;;0.10;0.10;;;15.90;90.10;;;;;;4902350;29;20043;-79
2023/12/09 12:57:38;;;;;;;0.00;0.00;;;15.90;90.10;;;;;;4902085;29;20039;-79
2023/12/09 13:00:05;;;;;;;0.00;0.00;;;15.80;90.20;;;;;;4885153;29;20047;-79
2023/12/09 13:02:32;;;;;;;0.00;0.00;;;15.80;90.20;;;;;;4888464;29;20035;-79
2023/12/09 13:04:58;;;;;;;0.10;0.10;;;15.80;90.30;;;;;;4897853;29;20120;-79
2023/12/09 13:07:24;;;;;;;0.10;0.10;;;15.90;90.20;;;;;;4895890;29;20076;-80
2023/12/09 13:09:49;;;;;;;0.10;0.10;;;15.80;90.10;;;;;;4902912;29;20031;-79
2023/12/09 13:12:15;;;;;;;0.10;0.10;;;15.80;90.20;;;;;;4894728;29;20061;-79
2023/12/09 13:14:41;;;;;;;0.10;0.10;;;15.90;89.90;;;;;;4903737;29;20035;-79
2023/12/09 13:17:07;;;;;;;0.00;0.00;;;16.00;90.00;;;;;;4899302;29;20033;-79
2023/12/09 13:19:33;;;;;;;0.00;0.00;;;16.00;89.60;;;;;;4899904;29;20036;-80
2023/12/09 13:21:59;;;;;;;0.00;0.00;;;15.90;89.80;;;;;;4887595;29;20724;-80
2023/12/09 13:24:24;;;;;;;0.00;0.00;;;15.90;89.80;;;;;;4883648;29;20040;-80
2023/12/09 13:26:51;;;;;;;0.10;0.10;;;15.90;89.90;;;;;;4910295;29;20024;-80
2023/12/09 13:29:16;;;;;;;0.00;0.00;;;15.80;89.90;;;;;;4887483;29;20032;-78
2023/12/09 13:31:42;;;;;;;0.00;0.00;;;15.90;90.10;;;;;;4898430;29;20152;-80
2023/12/09 13:34:08;;;;;;;0.10;0.10;;;15.80;90.10;;;;;;4900117;29;20609;-79
2023/12/09 13:36:37;;;;;;;0.10;0.10;;;15.90;90.20;;;;;;4876337;29;20107;-79
2023/12/09 13:39:05;;;;;;;0.00;0.00;;;15.80;90.20;;;;;;4879448;29;20127;-78
2023/12/09 13:41:31;;;;;;;0.10;0.10;;;15.80;91.10;;;;;;4888139;29;20059;-77
2023/12/09 13:43:57;;;;;;;0.00;0.00;;;15.50;91.90;;;;;;4895360;29;20029;-77
2023/12/09 13:46:23;;;;;;;0.00;0.00;;;15.30;92.50;;;;;;4899262;29;20548;-77
2023/12/09 13:48:48;;;;;;;0.00;0.00;;;15.20;92.30;;;;;;4877060;29;20142;-76
2023/12/09 13:51:14;;;;;;;0.00;0.00;;;15.30;92.70;;;;;;4881915;29;20033;-79
2023/12/09 13:53:40;;;;;;;0.10;0.10;;;15.30;92.50;;;;;;4879944;29;20109;-82
2023/12/09 13:56:06;;;;;;;0.00;0.00;;;15.30;92.50;;;;;;4898902;29;20103;-82
2023/12/09 13:58:32;;;;;;;0.00;0.00;;;15.30;92.50;;;;;;4878126;29;20032;-80
2023/12/09 14:00:57;;;;;;;0.00;0.00;;;15.20;92.20;;;;;;4896231;29;20029;-81
2023/12/09 14:03:26;;;;;;;0.08;0.08;;;15.20;92.20;;;;;;4893468;29;20036;-81
2023/12/09 14:05:52;;;;;;;0.00;0.00;;;15.10;92.00;;;;;;4898012;29;20076;-80
2023/12/09 14:08:18;;;;;;;0.00;0.00;;;15.00;91.80;;;;;;4898267;29;20460;-81
2023/12/09 14:10:43;;;;;;;0.00;0.00;;;15.10;91.50;;;;;;4877685;29;20117;-81
2023/12/09 14:13:10;;;;;;;0.00;0.00;;;15.10;91.50;;;;;;4888946;29;20037;-81
2023/12/09 14:15:36;;;;;;;0.10;0.10;;;15.00;91.40;;;;;;4876397;29;20067;-80
2023/12/09 14:18:02;;;;;;;0.10;0.10;;;15.00;90.80;;;;;;4898301;29;20036;-79
2023/12/09 14:20:28;;;;;;;0.00;0.00;;;14.90;90.40;;;;;;4899655;29;20033;-79
2023/12/09 14:22:54;;;;;;;0.10;0.10;;;14.80;90.10;;;;;;4894529;29;20655;-78
2023/12/09 14:25:20;;;;;;;0.03;0.03;;;14.80;89.90;;;;;;4898899;29;20043;-79
2023/12/09 14:27:45;;;;;;;0.10;0.10;;;14.80;89.70;;;;;;4901432;29;20073;-78
2023/12/09 14:30:11;;;;;;;0.00;0.00;;;14.80;89.90;;;;;;4893862;29;20088;-79
2023/12/09 14:32:37;;;;;;;0.00;0.00;;;15.00;89.90;;;;;;4898852;29;20057;-78
2023/12/09 14:35:04;;;;;;;0.13;0.13;;;15.10;89.50;;;;;;4884127;29;20052;-78
2023/12/09 14:37:30;;;;;;;0.10;0.10;;;15.00;89.20;;;;;;4907547;29;20040;-81
2023/12/09 14:39:55;;;;;;;0.10;0.10;;;15.10;88.80;;;;;;4884041;29;20029;-78
2023/12/09 14:42:21;;;;;;;0.10;0.10;;;15.20;88.80;;;;;;4901825;29;20028;-79
2023/12/09 14:44:47;;;;;;;0.10;0.10;;;15.30;88.20;;;;;;4898618;29;20021;-79
2023/12/09 14:47:14;;;;;;;0.10;0.10;;;15.20;87.90;;;;;;4901629;29;20037;-79
2023/12/09 14:49:40;;;;;;;0.10;0.10;;;15.10;88.40;;;;;;4886177;29;20041;-79
2023/12/09 14:52:06;;;;;;;0.10;0.10;;;15.10;88.20;;;;;;4885278;29;20039;-79
2023/12/09 14:54:31;;;;;;;0.00;0.00;;;15.00;88.20;;;;;;4881952;29;20590;-81
2023/12/09 14:56:57;;;;;;;0.10;0.10;;;15.00;88.80;;;;;;4884612;29;20044;-81
2023/12/09 14:59:24;;;;;;;0.10;0.10;;;14.80;88.50;;;;;;4883419;29;20050;-80
2023/12/09 15:01:49;;;;;;;0.00;0.00;;;14.80;88.20;;;;;;4904769;29;20024;-79
2023/12/09 15:04:15;;;;;;;0.10;0.10;;;14.60;87.80;;;;;;4900527;29;20028;-78
2023/12/09 15:06:41;;;;;;;0.10;0.10;;;14.60;86.80;;;;;;4881004;29;20052;-78
2023/12/09 15:09:09;;;;;;;0.10;0.10;;;14.50;86.80;;;;;;4881917;29;20189;-80
2023/12/09 15:11:35;;;;;;;0.10;0.10;;;14.40;86.50;;;;;;4901134;29;20041;-81
2023/12/09 15:14:01;;;;;;;0.10;0.10;;;14.30;85.70;;;;;;4899773;29;20028;-80
2023/12/09 15:16:28;;;;;;;0.10;0.10;;;14.20;85.10;;;;;;4900845;29;20040;-80
2023/12/09 15:18:54;;;;;;;0.10;0.10;;;14.20;85.00;;;;;;4899068;29;20029;-80
2023/12/09 15:21:20;;;;;;;0.15;0.10;;;14.10;85.40;;;;;;4881026;29;20044;-80
2023/12/09 15:23:45;;;;;;;0.10;0.10;;;13.90;84.10;;;;;;4907058;29;20043;-80
2023/12/09 15:26:12;;;;;;;0.10;0.10;;;13.90;84.80;;;;;;4900617;29;20025;-80
2023/12/09 15:28:37;;;;;;;0.10;0.10;;;13.80;83.70;;;;;;4896592;29;20044;-79
2023/12/09 15:31:03;;;;;;;0.00;0.00;;;13.80;84.30;;;;;;4883805;29;20056;-80
2023/12/09 15:33:29;;;;;;;0.10;0.10;;;13.70;84.10;;;;;;4898078;29;20096;-80
2023/12/09 15:35:55;;;;;;;0.10;0.10;;;13.60;83.20;;;;;;4896292;29;20060;-80
2023/12/09 15:38:21;;;;;;;0.10;0.10;;;13.50;82.90;;;;;;4911503;29;20056;-79
2023/12/09 15:40:47;;;;;;;0.10;0.10;;;13.40;81.70;;;;;;4902626;29;20024;-80
2023/12/09 15:43:13;;;;;;;0.10;0.10;;;13.40;82.20;;;;;;4884855;29;20067;-79
2023/12/09 15:45:38;;;;;;;0.10;0.10;;;13.30;79.90;;;;;;4897880;29;20614;-79
2023/12/09 15:48:04;;;;;;;0.10;0.10;;;13.20;82.40;;;;;;4898857;29;20044;-79
2023/12/09 15:50:31;;;;;;;0.10;0.10;;;13.20;82.30;;;;;;4890278;29;20098;-79
2023/12/09 15:52:58;;;;;;;0.10;0.10;;;13.10;80.30;;;;;;4883483;29;20148;-78
2023/12/09 15:55:25;;;;;;;0.10;0.10;;;13.00;82.40;;;;;;4895898;29;20115;-79
2023/12/09 15:57:51;;;;;;;0.10;0.10;;;13.00;81.40;;;;;;4891332;29;20416;-83
2023/12/09 16:00:17;;;;;;;0.10;0.10;;;12.90;82.40;;;;;;4884754;29;20518;-80
2023/12/09 16:02:43;;;;;;;0.10;0.10;;;12.90;82.50;;;;;;4896221;29;20064;-80
2023/12/09 16:05:08;;;;;;;0.20;0.20;;;12.80;82.00;;;;;;4893888;29;20430;-82
2023/12/09 16:07:34;;;;;;;0.15;0.15;;;12.80;83.40;;;;;;4898739;29;20024;-77
2023/12/09 16:10:00;;;;;;;0.15;0.15;;;12.80;82.40;;;;;;4893831;29;20029;-81
2023/12/09 16:12:25;;;;;;;0.10;0.10;;;12.70;82.80;;;;;;4894089;29;20446;-82
2023/12/09 16:14:51;;;;;;;0.15;0.15;;;12.80;84.00;;;;;;4894395;29;20040;-85
2023/12/09 16:17:18;;;;;;;0.10;0.10;;;12.70;83.70;;;;;;4878982;29;20033;-84
2023/12/09 16:19:45;;;;;;;0.10;0.10;;;12.70;83.20;;;;;;4900267;29;20080;-84
2023/12/09 16:22:11;;;;;;;0.10;0.10;;;12.60;84.50;;;;;;4891654;29;20037;-79
2023/12/09 16:24:36;;;;;;;0.10;0.10;;;12.60;84.70;;;;;;4896387;29;20088;-83
2023/12/09 16:27:02;;;;;;;0.20;0.20;;;12.50;84.60;;;;;;4872193;29;20100;-82
2023/12/09 16:29:28;;;;;;;0.10;0.10;;;12.50;83.70;;;;;;4879593;29;20032;-81
2023/12/09 16:31:53;;;;;;;0.20;0.20;;;12.40;83.40;;;;;;4897370;29;20048;-82
2023/12/09 16:34:19;;;;;;;0.25;0.20;;;12.40;84.70;;;;;;4896175;29;20052;-79
2023/12/09 16:36:45;;;;;;;0.20;0.20;;;12.50;82.90;;;;;;4897449;29;20608;-76
2023/12/09 16:39:12;;;;;;;0.10;0.10;;;12.40;82.90;;;;;;4889259;29;20801;-78
2023/12/09 16:41:38;;;;;;;0.20;0.20;;;12.40;82.10;;;;;;4902682;29;20500;-78
2023/12/09 16:44:04;;;;;;;0.10;0.10;;;12.40;83.70;;;;;;4899290;29;20029;-77
2023/12/09 16:46:32;;;;;;;0.15;0.15;;;12.30;83.50;;;;;;4883566;29;20024;-78
2023/12/09 16:48:58;;;;;;;0.10;0.10;;;12.40;85.70;;;;;;4903791;29;20033;-80
2023/12/09 16:51:23;;;;;;;0.10;0.10;;;12.30;83.90;;;;;;4883102;29;20028;-78
2023/12/09 16:53:49;;;;;;;0.17;0.17;;;12.20;84.90;;;;;;4916584;29;20028;-78
2023/12/09 16:56:15;;;;;;;0.10;0.10;;;12.20;84.30;;;;;;4899315;29;20041;-78
2023/12/09 16:58:40;;;;;;;0.10;0.10;;;12.20;84.60;;;;;;4898311;29;20412;-77
2023/12/09 17:01:06;;;;;;;0.10;0.10;;;12.20;84.80;;;;;;4897082;29;20036;-78
2023/12/09 17:03:32;;;;;;;0.17;0.17;;;12.10;84.70;;;;;;4876797;29;20027;-82
2023/12/09 17:05:57;;;;;;;0.13;0.13;;;12.10;85.40;;;;;;4895623;29;20101;-80
2023/12/09 17:08:23;;;;;;;0.20;0.20;;;12.10;86.00;;;;;;4899582;29;20060;-82
2023/12/09 17:10:49;;;;;;;0.13;0.13;;;12.10;85.50;;;;;;4881822;29;20048;-81
2023/12/09 17:13:32;;;;;;;0.10;0.10;;;12.10;85.60;;;;;;4895302;29;20040;-78
2023/12/09 17:15:57;;;;;;;0.10;0.10;;;12.00;85.80;;;;;;4877522;29;20039;-82
2023/12/09 17:18:25;;;;;;;0.17;0.17;;;12.00;85.50;;;;;;4880278;29;20037;-80
2023/12/09 17:20:51;;;;;;;0.13;0.13;;;12.00;85.90;;;;;;4887052;29;20033;-79
2023/12/09 17:23:16;;;;;;;0.20;0.20;;;11.90;85.00;;;;;;4881408;29;20025;-79
2023/12/09 17:25:42;;;;;;;0.20;0.20;;;11.90;84.70;;;;;;4890588;29;20025;-81
2023/12/09 17:28:22;;;;;;;0.10;0.10;;;11.90;86.00;;;;;;4879852;29;20045;-81
2023/12/09 17:30:49;;;;;;;0.17;0.17;;;11.80;85.30;;;;;;4890121;29;20112;-84
2023/12/09 17:33:15;;;;;;;0.20;0.20;;;11.80;86.30;;;;;;4884282;29;20035;-79
2023/12/09 17:35:41;;;;;;;0.20;0.20;;;11.80;86.30;;;;;;4887481;29;20031;-81
2023/12/09 17:38:07;;;;;;;0.13;0.13;;;11.90;85.90;;;;;;4907046;29;20036;-80
2023/12/09 17:40:32;;;;;;;0.10;0.10;;;11.90;85.40;;;;;;4904364;29;20029;-82
2023/12/09 17:42:58;;;;;;;0.20;0.20;;;11.90;85.70;;;;;;4881227;29;20049;-84
2023/12/09 17:45:24;;;;;;;0.10;0.10;;;11.90;85.60;;;;;;4897558;29;20028;-83
2023/12/09 17:47:50;;;;;;;0.10;0.10;;;11.90;86.00;;;;;;4884212;29;20503;-84
2023/12/09 17:50:16;;;;;;;0.20;0.20;;;11.90;86.10;;;;;;4894961;29;20409;-81
2023/12/09 17:52:42;;;;;;;0.20;0.20;;;11.90;85.20;;;;;;4896303;29;20398;-84
2023/12/09 17:55:08;;;;;;;0.10;0.10;;;12.00;85.70;;;;;;4883586;29;20115;-86
2023/12/09 17:57:34;;;;;;;0.20;0.20;;;12.00;85.30;;;;;;4896706;29;20032;-83
2023/12/09 18:00:00;;;;;;;0.10;0.10;;;12.00;85.40;;;;;;4897203;29;20039;-81
2023/12/09 18:02:26;;;;;;;0.20;0.20;;;12.00;85.20;;;;;;4893932;29;20041;-89
2023/12/09 18:04:51;;;;;;;0.20;0.20;;;12.10;85.10;;;;;;4885018;29;20123;-88
2023/12/09 18:07:17;;;;;;;0.20;0.20;;;12.10;84.80;;;;;;4901423;29;20084;-87
2023/12/09 18:09:43;;;;;;;0.20;0.20;;;12.10;85.20;;;;;;4884985;29;20489;-86
2023/12/09 18:12:10;;;;;;;0.20;0.20;;;12.00;85.20;;;;;;4884714;29;20070;-87
2023/12/09 18:14:35;;;;;;;0.10;0.10;;;12.00;85.50;;;;;;4900385;29;20025;-85